Time;durP1;ratioP1;P1;durP2;ratioP2;P2;SDS_P1;SDS_P2;PMS_P1;PMS_P2;Temp;Humidity;BMP_temperature;BMP_pressure;BME280_temperature;BME280_humidity;BME280_pressure;Samples;Min_cycle;Max_cycle;Signal;HPM_P1;HPM_P2
2022/05/06 00:00:14;;;;;;;9.60;5.00;;;;;;;;;;5019167;28;20849;-82
2022/05/06 00:02:42;;;;;;;9.63;5.00;;;;;;;;;;5015186;28;20258;-82
2022/05/06 00:05:11;;;;;;;9.00;5.70;;;;;;;;;;5014562;28;20220;-82
2022/05/06 00:07:39;;;;;;;10.67;5.47;;;;;;;;;;5013469;28;20233;-82
2022/05/06 00:10:07;;;;;;;12.43;5.70;;;;;;;;;;5018436;28;20313;-82
2022/05/06 00:12:35;;;;;;;15.43;6.20;;;;;;;;;;5013653;28;20224;-83
2022/05/06 00:15:02;;;;;;;10.17;5.53;;;;;;;;;;5012053;28;20282;-82
2022/05/06 00:17:29;;;;;;;17.77;5.87;;;;;;;;;;5014538;28;20207;-82
2022/05/06 00:19:56;;;;;;;9.23;5.13;;;;;;;;;;5018070;28;20227;-82
2022/05/06 00:22:24;;;;;;;10.80;5.73;;;;;;;;;;5015791;28;20731;-82
2022/05/06 00:24:52;;;;;;;10.77;5.40;;;;;;;;;;5015926;28;20303;-81
2022/05/06 00:27:19;;;;;;;11.37;4.90;;;;;;;;;;5019032;28;20291;-83
2022/05/06 00:29:47;;;;;;;9.83;5.53;;;;;;;;;;5018716;28;20738;-82
2022/05/06 00:32:14;;;;;;;12.37;5.53;;;;;;;;;;5021426;28;20840;-81
2022/05/06 00:34:41;;;;;;;10.53;5.90;;;;;;;;;;5013780;28;20242;-82
2022/05/06 00:37:08;;;;;;;9.47;5.43;;;;;;;;;;5016730;28;20231;-82
2022/05/06 00:39:36;;;;;;;10.67;5.43;;;;;;;;;;5014099;28;20603;-82
2022/05/06 00:42:05;;;;;;;13.43;5.50;;;;;;;;;;5009565;28;20238;-82
2022/05/06 00:44:32;;;;;;;10.17;5.50;;;;;;;;;;5013821;28;20227;-81
2022/05/06 00:47:00;;;;;;;12.00;5.47;;;;;;;;;;5017889;28;20239;-82
2022/05/06 00:49:27;;;;;;;9.63;5.47;;;;;;;;;;5010972;28;20216;-82
2022/05/06 00:51:57;;;;;;;12.27;6.23;;;;;;;;;;5013483;28;20280;-82
2022/05/06 00:54:24;;;;;;;10.70;5.37;;;;;;;;;;5012058;28;20208;-84
2022/05/06 00:56:52;;;;;;;10.83;5.53;;;;;;;;;;5015541;28;20700;-83
2022/05/06 00:59:20;;;;;;;9.87;5.27;;;;;;;;;;5016074;28;20599;-82
2022/05/06 01:01:48;;;;;;;12.33;5.13;;;;;;;;;;5011747;28;20216;-82
2022/05/06 01:04:17;;;;;;;10.47;5.20;;;;;;;;;;5013274;28;20215;-82
2022/05/06 01:06:45;;;;;;;11.23;5.20;;;;;;;;;;5012333;28;20221;-82
2022/05/06 01:09:14;;;;;;;9.00;5.33;;;;;;;;;;5016984;28;20239;-83
2022/05/06 01:11:41;;;;;;;12.03;5.20;;;;;;;;;;5015524;28;20211;-84
2022/05/06 01:14:09;;;;;;;11.70;5.30;;;;;;;;;;5011326;28;20212;-82
2022/05/06 01:16:38;;;;;;;10.83;5.40;;;;;;;;;;5013942;28;20293;-82
2022/05/06 01:19:06;;;;;;;13.53;5.57;;;;;;;;;;5011440;28;20236;-83
2022/05/06 01:21:35;;;;;;;9.63;5.23;;;;;;;;;;5010332;28;20220;-83
2022/05/06 01:24:04;;;;;;;9.37;4.90;;;;;;;;;;5014471;28;20197;-82
2022/05/06 01:26:50;;;;;;;10.50;5.17;;;;;;;;;;5013547;28;20510;-83
2022/05/06 01:29:18;;;;;;;12.73;5.27;;;;;;;;;;5012000;28;20687;-82
2022/05/06 01:31:47;;;;;;;10.50;5.27;;;;;;;;;;5010183;28;20200;-82
2022/05/06 01:34:15;;;;;;;9.80;4.93;;;;;;;;;;5009723;28;20251;-81
2022/05/06 01:36:43;;;;;;;7.57;4.70;;;;;;;;;;5015843;28;20270;-82
2022/05/06 01:39:13;;;;;;;9.33;4.80;;;;;;;;;;5013551;28;20260;-81
2022/05/06 01:41:43;;;;;;;10.00;4.57;;;;;;;;;;5022683;28;20315;-81
2022/05/06 01:44:11;;;;;;;10.53;4.67;;;;;;;;;;5011616;28;20681;-81
2022/05/06 01:46:39;;;;;;;13.93;5.50;;;;;;;;;;5018180;28;20248;-82
2022/05/06 01:49:06;;;;;;;10.43;5.10;;;;;;;;;;5032926;28;20276;-81
2022/05/06 01:51:35;;;;;;;12.03;4.87;;;;;;;;;;5016939;28;20211;-82
2022/05/06 01:54:02;;;;;;;16.73;5.03;;;;;;;;;;5027050;28;20231;-82
2022/05/06 01:56:31;;;;;;;7.77;4.60;;;;;;;;;;5023640;28;20227;-81
2022/05/06 01:58:58;;;;;;;14.03;5.20;;;;;;;;;;5028123;28;20677;-82
2022/05/06 02:01:25;;;;;;;10.17;5.27;;;;;;;;;;5003265;28;20229;-81
2022/05/06 02:06:38;;;;;;;9.23;4.43;;;;;;;;;;5014501;28;20223;-82
2022/05/06 02:09:05;;;;;;;12.70;5.40;;;;;;;;;;5015403;28;20262;-82
2022/05/06 02:11:34;;;;;;;10.13;5.00;;;;;;;;;;5025921;28;20207;-81
2022/05/06 02:14:02;;;;;;;10.90;4.77;;;;;;;;;;5024885;28;20215;-83
2022/05/06 02:16:29;;;;;;;12.17;4.63;;;;;;;;;;5031414;28;20602;-82
2022/05/06 02:18:57;;;;;;;9.10;4.73;;;;;;;;;;5018803;28;20196;-82
2022/05/06 02:21:24;;;;;;;8.43;4.70;;;;;;;;;;5027204;23;20237;-79
2022/05/06 02:23:51;;;;;;;10.20;4.50;;;;;;;;;;5002089;28;20207;-78
2022/05/06 02:26:18;;;;;;;10.47;4.43;;;;;;;;;;5007677;28;20612;-79
2022/05/06 02:28:47;;;;;;;7.50;4.43;;;;;;;;;;5005444;28;20207;-79
2022/05/06 02:33:58;;;;;;;7.47;4.37;;;;;;;;;;4971407;28;20583;-78
2022/05/06 02:36:25;;;;;;;8.80;4.37;;;;;;;;;;5001077;28;20654;-77
2022/05/06 02:38:52;;;;;;;11.07;4.50;;;;;;;;;;5002525;28;20300;-78
2022/05/06 02:41:19;;;;;;;7.87;4.13;;;;;;;;;;5002281;28;20581;-78
2022/05/06 02:43:48;;;;;;;10.00;4.17;;;;;;;;;;5003307;28;20201;-79
2022/05/06 02:46:15;;;;;;;10.03;4.00;;;;;;;;;;5005116;28;20204;-80
2022/05/06 02:48:50;;;;;;;13.87;4.37;;;;;;;;;;5003342;28;20205;-78
2022/05/06 02:51:17;;;;;;;8.33;4.03;;;;;;;;;;5006629;28;20224;-79
2022/05/06 02:53:44;;;;;;;9.43;4.10;;;;;;;;;;5003652;28;20573;-77
2022/05/06 02:56:11;;;;;;;6.37;3.73;;;;;;;;;;5002023;28;20207;-79
2022/05/06 02:58:38;;;;;;;10.50;4.60;;;;;;;;;;4999587;28;20589;-79
2022/05/06 03:01:07;;;;;;;8.67;3.83;;;;;;;;;;4999819;28;20311;-79
2022/05/06 03:03:34;;;;;;;10.73;4.10;;;;;;;;;;4999278;28;20209;-79
2022/05/06 03:06:01;;;;;;;6.37;3.97;;;;;;;;;;5003719;28;20196;-79
2022/05/06 03:08:28;;;;;;;11.07;4.50;;;;;;;;;;5009388;28;20244;-79
2022/05/06 03:10:55;;;;;;;13.97;4.20;;;;;;;;;;5002424;28;20307;-79
2022/05/06 03:13:23;;;;;;;8.87;4.10;;;;;;;;;;5004809;28;20303;-80
2022/05/06 03:15:50;;;;;;;6.47;3.87;;;;;;;;;;5008767;28;20900;-78
2022/05/06 03:18:19;;;;;;;6.37;3.67;;;;;;;;;;5003735;28;20204;-79
2022/05/06 03:20:46;;;;;;;11.10;4.53;;;;;;;;;;4999973;28;20713;-79
2022/05/06 03:23:14;;;;;;;8.37;4.50;;;;;;;;;;5003400;28;20553;-79
2022/05/06 03:25:42;;;;;;;9.87;3.97;;;;;;;;;;5006636;28;20210;-79
2022/05/06 03:28:09;;;;;;;8.13;3.80;;;;;;;;;;5005374;28;20201;-78
2022/05/06 03:30:45;;;;;;;8.90;3.60;;;;;;;;;;5008128;28;20220;-78
2022/05/06 03:33:14;;;;;;;7.50;3.87;;;;;;;;;;5001081;28;20290;-78
2022/05/06 03:35:43;;;;;;;8.83;3.53;;;;;;;;;;4999470;28;20281;-80
2022/05/06 03:38:10;;;;;;;7.27;4.07;;;;;;;;;;5007806;28;20214;-78
2022/05/06 03:40:37;;;;;;;7.10;3.93;;;;;;;;;;5002926;28;20247;-78
2022/05/06 03:43:04;;;;;;;11.63;3.80;;;;;;;;;;5000515;28;20226;-79
2022/05/06 03:45:32;;;;;;;11.00;3.93;;;;;;;;;;5001621;28;20766;-78
2022/05/06 03:47:59;;;;;;;11.13;4.20;;;;;;;;;;5001388;28;20208;-79
2022/05/06 03:53:13;;;;;;;12.47;4.63;;;;;;;;;;5004528;28;20227;-81
2022/05/06 03:55:40;;;;;;;7.27;4.03;;;;;;;;;;5003827;28;20345;-79
2022/05/06 03:58:07;;;;;;;10.00;3.80;;;;;;;;;;5009058;28;20214;-78
2022/05/06 04:00:35;;;;;;;7.57;4.03;;;;;;;;;;5008881;28;20314;-79
2022/05/06 04:03:02;;;;;;;6.67;4.00;;;;;;;;;;5007148;28;20208;-79
2022/05/06 04:05:29;;;;;;;8.73;4.17;;;;;;;;;;5002467;28;20209;-79
2022/05/06 04:07:57;;;;;;;13.17;3.70;;;;;;;;;;5001483;28;20259;-79
2022/05/06 04:10:29;;;;;;;10.53;4.20;;;;;;;;;;5005517;28;20258;-78
2022/05/06 04:12:57;;;;;;;7.57;3.60;;;;;;;;;;5003950;28;20712;-80
2022/05/06 04:15:24;;;;;;;7.43;3.53;;;;;;;;;;5003526;28;20677;-79
2022/05/06 04:17:51;;;;;;;6.43;3.37;;;;;;;;;;5002243;28;20288;-79
2022/05/06 04:25:49;;;;;;;6.43;3.43;;;;;;;;;;5002212;28;20202;-82
2022/05/06 04:28:17;;;;;;;6.07;3.00;;;;;;;;;;5004303;28;20267;-80
2022/05/06 04:30:44;;;;;;;7.57;3.30;;;;;;;;;;5005052;28;20256;-79
2022/05/06 04:33:11;;;;;;;19.80;2.93;;;;;;;;;;5011676;28;20226;-80
2022/05/06 04:35:38;;;;;;;6.43;3.23;;;;;;;;;;5017720;28;20233;-81
2022/05/06 04:38:05;;;;;;;5.67;2.97;;;;;;;;;;5005568;28;20247;-80
2022/05/06 04:40:33;;;;;;;19.73;3.63;;;;;;;;;;5002792;28;20765;-78
2022/05/06 04:43:01;;;;;;;7.13;2.57;;;;;;;;;;4998444;28;20688;-79
2022/05/06 04:45:29;;;;;;;7.13;3.57;;;;;;;;;;5004282;28;20242;-80
2022/05/06 04:47:57;;;;;;;8.10;3.17;;;;;;;;;;5002824;28;20213;-79
2022/05/06 04:50:24;;;;;;;9.60;3.03;;;;;;;;;;5000592;28;20228;-79
2022/05/06 04:52:52;;;;;;;9.00;3.10;;;;;;;;;;4999968;28;20216;-79
2022/05/06 04:55:19;;;;;;;13.07;3.33;;;;;;;;;;4998776;28;20201;-78
2022/05/06 04:57:46;;;;;;;6.97;3.27;;;;;;;;;;5008052;28;20232;-79
2022/05/06 05:00:15;;;;;;;7.50;2.90;;;;;;;;;;5006964;28;20224;-79
2022/05/06 05:02:42;;;;;;;7.43;3.33;;;;;;;;;;5003611;28;20296;-80
2022/05/06 05:05:10;;;;;;;12.50;2.87;;;;;;;;;;5004938;28;20208;-79
2022/05/06 05:07:38;;;;;;;6.17;2.83;;;;;;;;;;4998374;28;20577;-78
2022/05/06 05:10:05;;;;;;;8.00;2.90;;;;;;;;;;5001237;28;20295;-78
2022/05/06 05:12:33;;;;;;;4.03;2.70;;;;;;;;;;5002978;28;20311;-78
2022/05/06 05:15:00;;;;;;;4.83;2.67;;;;;;;;;;5004485;28;20231;-78
2022/05/06 05:17:29;;;;;;;10.27;3.07;;;;;;;;;;5007441;28;20231;-78
2022/05/06 05:19:56;;;;;;;10.47;3.30;;;;;;;;;;5007843;28;20275;-78
2022/05/06 05:22:23;;;;;;;10.90;3.30;;;;;;;;;;4999712;28;20217;-78
2022/05/06 05:24:50;;;;;;;10.30;2.90;;;;;;;;;;4999644;28;20235;-78
2022/05/06 05:27:17;;;;;;;8.53;2.80;;;;;;;;;;4997791;28;21624;-77
2022/05/06 05:29:45;;;;;;;5.73;2.87;;;;;;;;;;5004769;28;20227;-78
2022/05/06 05:32:12;;;;;;;15.13;2.87;;;;;;;;;;4998843;28;21670;-79
2022/05/06 05:34:42;;;;;;;6.17;2.60;;;;;;;;;;4998337;28;20340;-78
2022/05/06 05:37:10;;;;;;;10.27;2.67;;;;;;;;;;4995915;28;20204;-78
2022/05/06 05:39:37;;;;;;;5.13;2.73;;;;;;;;;;5005132;28;20315;-81
2022/05/06 05:42:04;;;;;;;5.97;2.50;;;;;;;;;;4996214;28;20213;-79
2022/05/06 05:50:02;;;;;;;11.07;2.90;;;;;;;;;;5000324;28;20701;-79
2022/05/06 05:52:29;;;;;;;8.33;2.67;;;;;;;;;;5005014;28;20220;-78
2022/05/06 05:54:59;;;;;;;8.73;2.70;;;;;;;;;;4994980;28;20197;-77
2022/05/06 05:57:26;;;;;;;7.37;2.57;;;;;;;;;;4999576;28;20205;-78
2022/05/06 05:59:54;;;;;;;8.23;3.97;;;;;;;;;;5000699;28;20229;-79
2022/05/06 06:02:21;;;;;;;7.70;2.80;;;;;;;;;;5006391;28;20761;-79
2022/05/06 06:04:49;;;;;;;8.87;3.00;;;;;;;;;;5006659;28;20295;-79
2022/05/06 06:07:18;;;;;;;4.67;2.50;;;;;;;;;;5006083;28;20264;-80
2022/05/06 06:09:45;;;;;;;6.10;3.00;;;;;;;;;;5002317;28;20308;-79
2022/05/06 06:12:12;;;;;;;15.00;2.90;;;;;;;;;;5004983;28;20609;-80
2022/05/06 06:14:39;;;;;;;13.30;2.67;;;;;;;;;;5001359;28;20292;-77
2022/05/06 06:17:06;;;;;;;14.00;3.30;;;;;;;;;;5004798;28;20197;-78
2022/05/06 06:19:34;;;;;;;6.30;2.40;;;;;;;;;;5007811;28;20232;-78
2022/05/06 06:22:01;;;;;;;6.27;2.50;;;;;;;;;;5008446;28;20251;-78
2022/05/06 06:24:29;;;;;;;11.30;2.60;;;;;;;;;;5000269;28;20212;-79
2022/05/06 06:26:58;;;;;;;5.47;2.50;;;9.10;99.90;;;;;;5003503;28;20215;-81
2022/05/06 06:29:25;;;;;;;7.67;2.57;;;19.80;99.90;;;;;;5004322;28;20228;-79
2022/05/06 06:31:52;;;;;;;6.23;2.47;;;20.40;99.90;;;;;;5005396;28;20209;-78
2022/05/06 06:34:19;;;;;;;8.63;2.63;;;21.00;99.90;;;;;;5004708;28;21470;-80
2022/05/06 06:36:45;;;;;;;12.07;2.90;;;21.30;99.90;;;;;;4992985;28;20215;-79
2022/05/06 06:39:12;;;;;;;12.93;2.90;;;21.40;99.90;;;;;;4997596;28;20213;-79
2022/05/06 06:41:41;;;;;;;8.87;2.67;;;21.10;99.90;;;;;;5007960;28;20227;-80
2022/05/06 06:44:07;;;;;;;9.60;2.50;;;21.50;99.90;;;;;;5000371;28;20301;-79
2022/05/06 06:46:34;;;;;;;16.30;3.10;;;21.70;99.90;;;;;;4995269;28;20301;-79
2022/05/06 06:49:01;;;;;;;9.70;2.73;;;22.60;99.90;;;;;;4990027;28;20776;-79
2022/05/06 06:51:28;;;;;;;4.73;2.90;;;23.10;99.90;;;;;;4993137;28;20302;-78
2022/05/06 06:53:55;;;;;;;5.73;2.47;;;23.00;99.90;;;;;;4995122;28;20219;-77
2022/05/06 06:56:23;;;;;;;8.83;2.10;;;22.80;99.90;;;;;;4995893;28;20811;-78
2022/05/06 06:58:51;;;;;;;6.77;2.43;;;22.80;99.90;;;;;;5000279;28;20388;-78
2022/05/06 07:01:20;;;;;;;6.47;2.50;;;;;;;;;;5001353;28;20243;-78
2022/05/06 07:03:47;;;;;;;3.67;1.83;;;;;;;;;;5007891;28;20247;-79
2022/05/06 07:14:33;;;;;;;5.20;2.20;;;;;;;;;;4991875;28;20208;-78
2022/05/06 07:17:00;;;;;;;6.27;1.97;;;;;;;;;;4997241;28;20197;-76
2022/05/06 07:19:27;;;;;;;4.13;1.73;;;;;;;;;;5010840;28;20314;-78
2022/05/06 07:21:54;;;;;;;4.20;1.73;;;23.50;99.90;;;;;;5007945;28;20525;-78
2022/05/06 07:24:23;;;;;;;7.63;1.90;;;25.60;99.90;;;;;;5006055;28;20243;-77
2022/05/06 07:26:50;;;;;;;3.80;1.60;;;25.10;99.90;;;;;;5008665;28;20204;-78
2022/05/06 07:29:17;;;;;;;3.80;1.10;;;24.90;99.90;;;;;;5004314;28;20306;-77
2022/05/06 07:31:45;;;;;;;3.77;1.37;;;;;;;;;;5003144;28;20293;-78
2022/05/06 07:34:15;;;;;;;3.53;1.30;;;;;;;;;;4997654;28;20224;-78
2022/05/06 07:36:42;;;;;;;2.57;1.53;;;;;;;;;;4999264;28;20211;-77
2022/05/06 07:39:10;;;;;;;4.40;1.83;;;;;;;;;;5003199;28;20213;-77
2022/05/06 07:41:38;;;;;;;4.30;1.40;;;;;;;;;;5005715;28;20201;-77
2022/05/06 07:44:05;;;;;;;7.30;1.57;;;;;;;;;;5005280;28;20360;-78
2022/05/06 07:46:33;;;;;;;4.60;1.47;;;;;;;;;;5005749;28;20212;-78
2022/05/06 07:49:01;;;;;;;3.50;1.53;;;;;;;;;;4999535;28;20203;-79
2022/05/06 07:51:28;;;;;;;2.73;1.60;;;;;;;;;;5005470;28;20196;-78
2022/05/06 07:53:56;;;;;;;3.83;1.47;;;;;;;;;;5005277;28;20607;-79
2022/05/06 07:56:23;;;;;;;5.27;1.83;;;;;;;;;;4997937;28;20223;-79
2022/05/06 07:58:51;;;;;;;4.77;1.47;;;;;;;;;;5000813;28;20208;-78
2022/05/06 08:01:18;;;;;;;3.80;1.63;;;;;;;;;;4996342;28;20221;-78
2022/05/06 08:06:31;;;;;;;5.70;1.67;;;;;;;;;;4990287;28;20205;-79
2022/05/06 08:08:58;;;;;;;4.20;1.50;;;;;;;;;;4991715;28;20214;-79
2022/05/06 08:11:25;;;;;;;18.63;1.93;;;;;;;;;;4996031;28;20225;-79
2022/05/06 08:13:52;;;;;;;5.83;1.40;;;;;;;;;;4996263;28;20221;-79
2022/05/06 08:16:20;;;;;;;3.67;1.37;;;;;;;;;;5001568;28;20288;-79
2022/05/06 08:18:47;;;;;;;4.00;1.20;;;;;;;;;;5003324;28;20220;-77
2022/05/06 08:21:14;;;;;;;2.37;1.50;;;;;;;;;;5003610;28;20235;-78
2022/05/06 08:23:43;;;;;;;1.90;1.20;;;;;;;;;;5002698;28;20212;-80
2022/05/06 08:26:12;;;;;;;3.03;1.50;;;;;;;;;;5004736;28;20259;-79
2022/05/06 08:28:39;;;;;;;3.20;1.33;;;;;;;;;;5006328;28;20224;-77
2022/05/06 08:31:06;;;;;;;3.47;1.30;;;;;;;;;;5001698;28;20251;-78
2022/05/06 08:33:34;;;;;;;33.23;3.27;;;;;;;;;;4996684;28;20687;-77
2022/05/06 08:36:01;;;;;;;3.93;1.20;;;;;;;;;;5003871;28;20214;-77
2022/05/06 08:38:30;;;;;;;3.20;1.50;;;;;;;;;;5010679;28;20208;-79
2022/05/06 08:40:58;;;;;;;3.67;1.67;;;;;;;;;;5006420;28;20228;-79
2022/05/06 08:43:25;;;;;;;4.23;1.40;;;;;;;;;;5007574;28;20229;-80
2022/05/06 08:51:27;;;;;;;3.00;1.23;;;;;;;;;;5001111;28;20233;-78
2022/05/06 08:53:57;;;;;;;3.47;1.60;;;;;;;;;;5001308;28;20239;-77
2022/05/06 08:56:30;;;;;;;2.33;1.13;;;;;;;;;;5004803;28;20635;-77
2022/05/06 08:58:57;;;;;;;3.37;1.10;;;;;;;;;;5001231;28;20604;-77
2022/05/06 09:01:25;;;;;;;5.23;1.50;;;;;;;;;;5012035;28;20600;-78
2022/05/06 09:03:53;;;;;;;2.70;1.20;;;;;;;;;;5014101;28;20204;-78
2022/05/06 09:06:21;;;;;;;5.40;1.73;;;;;;;;;;5004917;28;20234;-78
2022/05/06 09:08:49;;;;;;;3.13;1.20;;;;;;;;;;4992233;28;20341;-78
2022/05/06 09:11:17;;;;;;;3.60;1.20;;;;;;;;;;4997537;28;20314;-79
2022/05/06 09:13:55;;;;;;;3.00;1.27;;;;;;;;;;5009590;28;20236;-77
2022/05/06 09:16:40;;;;;;;6.67;1.30;;;;;;;;;;5010241;28;20205;-77
2022/05/06 09:19:11;;;;;;;2.47;1.00;;;;;;;;;;5013126;28;20200;-79
2022/05/06 09:21:39;;;;;;;4.97;1.07;;;;;;;;;;5020883;28;20246;-78
2022/05/06 09:24:17;;;;;;;4.90;1.00;;;;;;;;;;5020194;28;20268;-77
2022/05/06 09:26:56;;;;;;;3.07;1.30;;;;;;;;;;5008653;28;20208;-77
2022/05/06 09:29:29;;;;;;;1.07;0.80;;;;;;;;;;5007495;28;20230;-79
2022/05/06 09:31:57;;;;;;;4.27;1.10;;;;;;;;;;5005956;28;20201;-79
2022/05/06 09:34:28;;;;;;;2.60;1.13;;;;;;;;;;5011293;28;20227;-79
2022/05/06 09:36:56;;;;;;;4.43;1.33;;;;;;;;;;5003537;28;20223;-78
2022/05/06 09:39:23;;;;;;;1.27;1.00;;;;;;;;;;5001526;28;20221;-80
2022/05/06 09:42:01;;;;;;;6.30;1.40;;;;;;;;;;4999105;28;20252;-79
2022/05/06 09:44:30;;;;;;;3.93;1.30;;;;;;;;;;5001294;28;20202;-77
2022/05/06 09:47:09;;;;;;;1.87;1.00;;;;;;;;;;4998572;28;20216;-77
2022/05/06 09:49:43;;;;;;;2.83;1.17;;;;;;;;;;4999200;28;20258;-78
2022/05/06 09:52:11;;;;;;;4.87;1.47;;;;;;;;;;4999340;28;20200;-79
2022/05/06 09:54:40;;;;;;;4.23;0.90;;;;;;;;;;4997290;28;20356;-76
2022/05/06 09:57:08;;;;;;;3.37;0.83;;;;;;;;;;5001258;28;20197;-78
2022/05/06 09:59:37;;;;;;;2.43;1.00;;;;;;;;;;4996619;28;20229;-76
2022/05/06 10:02:05;;;;;;;5.17;1.07;;;;;;;;;;4989104;28;20205;-78
2022/05/06 10:04:32;;;;;;;3.43;1.00;;;;;;;;;;5002733;28;20251;-77
2022/05/06 10:07:01;;;;;;;1.80;0.90;;;;;;;;;;4998336;28;20296;-78
2022/05/06 10:09:29;;;;;;;2.20;0.90;;;;;;;;;;4995792;28;20228;-78
2022/05/06 10:11:58;;;;;;;4.90;1.10;;;;;;;;;;5004678;28;20208;-78
2022/05/06 10:14:25;;;;;;;3.97;1.13;;;;;;;;;;5002600;28;20623;-78
2022/05/06 10:16:54;;;;;;;3.90;1.43;;;;;;;;;;5007122;28;20207;-77
2022/05/06 10:19:28;;;;;;;5.27;1.67;;;;;;;;;;5001439;28;20233;-78
2022/05/06 10:21:56;;;;;;;2.37;1.10;;;;;;;;;;5003737;28;20735;-77
2022/05/06 10:24:23;;;;;;;2.70;0.97;;;;;;;;;;5005006;28;20212;-78
2022/05/06 10:26:51;;;;;;;3.60;0.97;;;;;;;;;;5001839;28;20327;-79
2022/05/06 10:32:37;;;;;;;1.27;0.77;;;;;;;;;;5004000;28;20255;-78
2022/05/06 10:35:12;;;;;;;1.13;0.80;;;;;;;;;;5000690;28;20260;-78
2022/05/06 10:37:40;;;;;;;1.17;0.80;;;;;;;;;;5002188;28;20383;-77
2022/05/06 10:40:26;;;;;;;2.10;1.00;;;;;;;;;;5004111;28;20259;-77
2022/05/06 10:42:53;;;;;;;3.13;0.90;;;;;;;;;;4999680;28;20204;-79
2022/05/06 10:45:24;;;;;;;3.63;1.10;;;;;;;;;;4997627;28;20216;-78
2022/05/06 10:47:51;;;;;;;2.53;0.90;;;;;;;;;;4999997;28;20294;-79
2022/05/06 10:50:23;;;;;;;5.13;0.80;;;;;;;;;;5004349;28;20740;-78
2022/05/06 10:52:51;;;;;;;2.20;0.97;;;;;;;;;;4997450;28;20811;-78
2022/05/06 10:55:20;;;;;;;3.13;1.00;;;;;;;;;;5001979;28;20343;-77
2022/05/06 10:57:49;;;;;;;3.30;0.97;;;;;;;;;;4996836;28;20235;-78
2022/05/06 11:00:17;;;;;;;2.70;0.90;;;;;;;;;;4996210;28;20982;-75
2022/05/06 11:02:44;;;;;;;1.60;0.77;;;;;;;;;;4999973;28;20487;-78
2022/05/06 11:05:12;;;;;;;2.30;0.77;;;;;;;;;;4994722;28;20211;-78
2022/05/06 11:07:41;;;;;;;5.53;0.70;;;;;;;;;;5000672;28;20204;-76
2022/05/06 11:10:09;;;;;;;2.37;0.90;;;;;;;;;;5007840;28;20572;-77
2022/05/06 11:12:37;;;;;;;1.80;0.80;;;;;;;;;;4996818;28;20205;-76
2022/05/06 11:15:05;;;;;;;4.90;0.93;;;;;;;;;;5000027;28;20224;-77
2022/05/06 11:17:33;;;;;;;2.27;0.90;;;;;;;;;;4999368;28;20254;-78
2022/05/06 11:20:00;;;;;;;3.27;1.00;;;;;;;;;;4999778;28;20219;-79
2022/05/06 11:22:28;;;;;;;4.30;0.97;;;;;;;;;;4993979;28;20227;-79
2022/05/06 11:24:58;;;;;;;1.83;0.80;;;;;;;;;;4997030;28;20204;-79
2022/05/06 11:27:25;;;;;;;3.87;0.90;;;;;;;;;;5006822;28;20367;-79
2022/05/06 11:29:55;;;;;;;2.57;0.90;;;;;;;;;;4998153;28;20346;-78
2022/05/06 11:32:22;;;;;;;4.73;1.03;;;;;;;;;;5007054;28;20204;-79
2022/05/06 11:34:56;;;;;;;3.43;0.80;;;;;;;;;;5005940;28;20674;-79
2022/05/06 11:37:23;;;;;;;2.83;0.70;;;;;;;;;;5007557;28;20236;-78
2022/05/06 11:39:51;;;;;;;2.40;0.53;;;;;;;;;;5002450;28;20244;-80
2022/05/06 11:42:23;;;;;;;2.70;1.00;;;;;;;;;;5004748;28;20271;-80
2022/05/06 11:47:42;;;;;;;1.30;0.80;;;;;;;;;;5004859;28;20204;-78
2022/05/06 11:50:10;;;;;;;3.83;0.90;;;;;;;;;;5004422;28;20228;-80
2022/05/06 11:52:40;;;;;;;2.80;0.80;;;;;;;;;;5005627;28;20203;-77
2022/05/06 11:55:08;;;;;;;0.93;0.63;;;;;;;;;;5007490;28;20220;-77
2022/05/06 11:57:38;;;;;;;3.87;0.73;;;;;;;;;;4998224;28;20200;-78
2022/05/06 12:00:05;;;;;;;3.27;1.07;;;;;;;;;;5005269;28;20224;-78
2022/05/06 12:02:33;;;;;;;1.50;0.87;;;;;;;;;;5005265;28;20204;-77
2022/05/06 12:05:00;;;;;;;1.13;0.77;;;;;;;;;;5015759;28;20227;-78
2022/05/06 12:07:41;;;;;;;3.20;1.00;;;;;;;;;;5009707;28;20201;-78
2022/05/06 12:10:09;;;;;;;1.23;0.80;;;;;;;;;;5025285;28;20251;-79
2022/05/06 12:12:51;;;;;;;12.50;1.17;;;;;;;;;;5001942;28;20208;-77
2022/05/06 12:15:20;;;;;;;4.70;0.90;;;;;;;;;;4997263;28;20228;-74
2022/05/06 12:17:47;;;;;;;2.23;0.70;;;;;;;;;;5004362;28;20572;-75
2022/05/06 12:20:34;;;;;;;1.83;0.77;;;;;;;;;;5006973;28;20247;-76
2022/05/06 12:23:01;;;;;;;3.63;0.90;;;;;;;;;;5003219;28;20229;-75
2022/05/06 12:25:29;;;;;;;11.23;1.30;;;;;;;;;;5000748;28;20746;-76
2022/05/06 12:28:10;;;;;;;7.00;1.37;;;;;;;;;;5001819;28;20205;-76
2022/05/06 12:30:42;;;;;;;1.60;0.73;;;;;;;;;;5016562;28;20216;-75
2022/05/06 12:33:11;;;;;;;1.20;0.70;;;;;;;;;;5001507;28;20224;-76
2022/05/06 12:35:57;;;;;;;2.23;1.00;;;;;;;;;;5003772;28;20228;-75
2022/05/06 12:38:25;;;;;;;2.87;0.70;;;;;;;;;;5003337;28;20292;-75
2022/05/06 12:40:52;;;;;;;3.43;0.80;;;;;;;;;;5000528;28;20505;-75
2022/05/06 12:43:26;;;;;;;2.10;0.60;;;;;;;;;;5004619;28;20205;-75
2022/05/06 12:45:55;;;;;;;1.77;0.70;;;;;;;;;;5001030;28;20200;-75
2022/05/06 12:53:47;;;;;;;1.97;0.67;;;;;;;;;;4989752;28;20209;-75
2022/05/06 12:56:18;;;;;;;1.30;0.73;;;;;;;;;;5001087;28;20742;-76
2022/05/06 12:58:45;;;;;;;2.00;0.90;;;;;;;;;;5002674;28;20672;-76
2022/05/06 13:01:14;;;;;;;1.40;0.77;;;;;;;;;;5001795;28;20571;-76
2022/05/06 13:03:42;;;;;;;1.50;0.70;;;;;;;;;;5001351;28;20205;-76
2022/05/06 13:06:10;;;;;;;3.23;0.80;;;;;;;;;;5003744;28;20295;-77
2022/05/06 13:08:37;;;;;;;1.40;0.70;;;;;;;;;;4998956;28;20236;-77
2022/05/06 13:11:04;;;;;;;1.23;0.70;;;;;;;;;;4998071;28;20226;-77
2022/05/06 13:13:31;;;;;;;1.23;0.70;;;;;;;;;;5004229;28;20295;-77
2022/05/06 13:15:59;;;;;;;3.67;0.87;;;;;;;;;;5001416;28;20256;-77
2022/05/06 13:18:27;;;;;;;1.53;0.80;;;;;;;;;;5002309;28;20292;-76
2022/05/06 13:20:55;;;;;;;2.73;0.87;;;;;;;;;;5002057;28;20307;-76
2022/05/06 13:23:22;;;;;;;1.53;0.50;;;;;;;;;;4999262;28;20211;-77
2022/05/06 13:25:49;;;;;;;1.37;0.70;;;;;;;;;;5013926;28;20205;-75
2022/05/06 13:28:17;;;;;;;3.87;0.80;;;;;;;;;;5010023;28;20657;-77
2022/05/06 13:30:45;;;;;;;1.47;0.90;;;;;;;;;;5003169;28;20294;-75
2022/05/06 13:33:12;;;;;;;3.03;0.90;;;;;;;;;;5005883;28;20196;-76
2022/05/06 13:35:41;;;;;;;4.53;0.90;;;;;;;;;;5000429;28;20407;-76
2022/05/06 13:38:08;;;;;;;1.23;0.60;;;;;;;;;;5005656;28;20211;-76
2022/05/06 13:40:36;;;;;;;4.77;0.80;;;;;;;;;;5009605;28;20224;-75
2022/05/06 13:43:03;;;;;;;4.37;0.80;;;;;;;;;;5010354;28;20729;-76
2022/05/06 13:45:30;;;;;;;2.70;0.90;;;;;;;;;;5000020;28;20205;-76
2022/05/06 13:47:57;;;;;;;1.73;0.70;;;;;;;;;;5005670;28;20203;-74
2022/05/06 13:50:25;;;;;;;1.80;0.77;;;;;;;;;;5010288;28;20263;-76
2022/05/06 13:52:53;;;;;;;2.23;1.00;;;;;;;;;;5000430;28;20215;-75
2022/05/06 13:59:03;;;;;;;0.73;0.70;;;;;;;;;;5007657;28;20228;-76
2022/05/06 14:00:55;;;;;;;1.53;0.80;;;;;;;;;;5004346;28;20250;-75
2022/05/06 14:03:23;;;;;;;3.40;0.90;;;;;;;;;;5002241;28;20212;-76
2022/05/06 14:05:54;;;;;;;1.70;0.83;;;;;;;;;;5009636;28;20673;-76
2022/05/06 14:08:22;;;;;;;1.53;0.80;;;;;;;;;;4998261;28;20217;-76
2022/05/06 14:10:50;;;;;;;1.40;0.80;;;;;;;;;;5009702;28;20224;-75
2022/05/06 14:13:17;;;;;;;5.03;0.90;;;;;;;;;;5008338;28;20284;-76
2022/05/06 14:15:44;;;;;;;1.70;0.80;;;;;;;;;;5012149;28;20290;-76
2022/05/06 14:18:11;;;;;;;2.43;0.70;;;;;;;;;;5019488;28;20208;-77
2022/05/06 14:20:38;;;;;;;3.03;1.23;;;;;;;;;;5015477;28;20228;-77
2022/05/06 15:10:59;;;;;;;3.67;0.83;;;;;;;;;;4955927;29;20273;-76
2022/05/06 15:13:28;;;;;;;1.97;0.77;;;;;;;;;;4943477;28;20233;-76
2022/05/06 15:15:56;;;;;;;1.60;0.80;;;;;;;;;;4956938;28;20254;-77
2022/05/06 15:21:08;;;;;;;2.67;0.80;;;;;;;;;;4943884;28;20213;-75
2022/05/06 15:23:35;;;;;;;1.17;0.70;;;;;;;;;;4944909;29;20213;-76
2022/05/06 15:26:05;;;;;;;1.77;0.93;;;;;;;;;;4940752;28;20669;-76
2022/05/06 15:28:32;;;;;;;2.20;0.80;;;;;;;;;;4941901;28;20216;-76
2022/05/06 15:30:59;;;;;;;4.90;0.93;;;;;;;;;;4942316;29;20222;-75
2022/05/06 15:33:33;;;;;;;1.23;0.80;;;;;;;;;;4944859;28;20217;-76
2022/05/06 15:36:00;;;;;;;1.50;0.90;;;;;;;;;;4942676;29;20237;-75
2022/05/06 15:38:27;;;;;;;3.47;1.00;;;;;;;;;;4941394;29;20265;-75
2022/05/06 15:40:55;;;;;;;4.60;0.73;;;;;;;;;;4939974;28;20210;-76
2022/05/06 15:43:23;;;;;;;2.23;1.03;;;;;;;;;;4944033;29;20213;-76
2022/05/06 15:45:51;;;;;;;4.57;0.73;;;;;;;;;;4941805;29;20202;-76
2022/05/06 15:48:21;;;;;;;4.17;0.90;;;;;;;;;;4944736;28;20209;-76
2022/05/06 15:50:48;;;;;;;1.70;1.00;;;;;;;;;;4942992;28;20728;-76
2022/05/06 15:53:16;;;;;;;2.83;0.83;;;;;;;;;;4942851;28;20277;-75
2022/05/06 15:55:43;;;;;;;5.00;1.07;;;;;;;;;;4945435;28;20226;-75
2022/05/06 15:58:10;;;;;;;4.17;0.80;;;;;;;;;;4948587;28;20248;-76
2022/05/06 16:00:38;;;;;;;1.87;1.00;;;;;;;;;;4946229;29;20218;-76
2022/05/06 16:03:06;;;;;;;2.40;1.07;;;;;;;;;;4938241;28;20215;-76
2022/05/06 16:05:35;;;;;;;4.50;1.10;;;;;;;;;;4943205;28;20214;-76
2022/05/06 16:08:02;;;;;;;0.93;0.80;;;;;;;;;;4942318;28;20222;-75
2022/05/06 16:10:30;;;;;;;1.70;0.90;;;;;;;;;;4942000;28;20218;-76
2022/05/06 16:12:57;;;;;;;1.60;0.83;;;;;;;;;;4942185;29;20210;-76
2022/05/06 16:15:25;;;;;;;3.77;0.97;;;;;;;;;;4940286;29;20231;-76
2022/05/06 16:17:54;;;;;;;2.50;1.07;;;;;;;;;;4939285;28;20257;-76
2022/05/06 16:20:22;;;;;;;2.53;0.87;;;;;;;;;;4940618;29;20211;-75